sensor_id;sensor_type;location;lat;lon;timestamp;P1;durP1;ratioP1;P2;durP2;ratioP2
68310;SDS011;55157;51.036;17.058;2022-09-12T00:00:35;14.95;;;6.53;;
68310;SDS011;55157;51.036;17.058;2022-09-12T00:03:01;9.23;;;6.30;;
68310;SDS011;55157;51.036;17.058;2022-09-12T00:05:26;9.52;;;6.28;;
68310;SDS011;55157;51.036;17.058;2022-09-12T00:07:53;7.28;;;5.93;;
68310;SDS011;55157;51.036;17.058;2022-09-12T00:10:18;13.65;;;6.75;;
68310;SDS011;55157;51.036;17.058;2022-09-12T00:12:43;7.95;;;6.18;;
68310;SDS011;55157;51.036;17.058;2022-09-12T00:15:09;8.68;;;6.07;;
68310;SDS011;55157;51.036;17.058;2022-09-12T00:17:34;9.60;;;6.95;;
68310;SDS011;55157;51.036;17.058;2022-09-12T00:19:59;10.65;;;6.00;;
68310;SDS011;55157;51.036;17.058;2022-09-12T00:22:25;8.70;;;6.00;;
68310;SDS011;55157;51.036;17.058;2022-09-12T00:24:51;8.30;;;6.28;;
68310;SDS011;55157;51.036;17.058;2022-09-12T00:27:17;9.73;;;5.80;;
68310;SDS011;55157;51.036;17.058;2022-09-12T00:29:42;8.90;;;6.78;;
68310;SDS011;55157;51.036;17.058;2022-09-12T00:32:09;14.35;;;6.00;;
68310;SDS011;55157;51.036;17.058;2022-09-12T00:34:34;10.50;;;6.18;;
68310;SDS011;55157;51.036;17.058;2022-09-12T00:36:59;8.02;;;6.18;;
68310;SDS011;55157;51.036;17.058;2022-09-12T00:39:25;8.93;;;5.20;;
68310;SDS011;55157;51.036;17.058;2022-09-12T00:41:51;10.85;;;5.78;;
68310;SDS011;55157;51.036;17.058;2022-09-12T00:47:01;7.82;;;5.43;;
68310;SDS011;55157;51.036;17.058;2022-09-12T00:49:28;7.63;;;5.55;;
68310;SDS011;55157;51.036;17.058;2022-09-12T00:51:57;6.45;;;5.50;;
68310;SDS011;55157;51.036;17.058;2022-09-12T00:54:25;7.93;;;5.35;;
68310;SDS011;55157;51.036;17.058;2022-09-12T00:56:54;6.88;;;4.88;;
68310;SDS011;55157;51.036;17.058;2022-09-12T00:59:21;8.90;;;5.28;;
68310;SDS011;55157;51.036;17.058;2022-09-12T01:01:48;6.97;;;5.03;;
68310;SDS011;55157;51.036;17.058;2022-09-12T01:04:13;5.95;;;4.97;;
68310;SDS011;55157;51.036;17.058;2022-09-12T01:06:41;5.70;;;4.57;;
68310;SDS011;55157;51.036;17.058;2022-09-12T01:09:06;6.57;;;4.63;;
68310;SDS011;55157;51.036;17.058;2022-09-12T01:11:33;10.43;;;5.63;;
68310;SDS011;55157;51.036;17.058;2022-09-12T01:14:01;6.13;;;4.80;;
68310;SDS011;55157;51.036;17.058;2022-09-12T01:16:26;10.02;;;4.55;;
68310;SDS011;55157;51.036;17.058;2022-09-12T01:18:54;7.43;;;4.78;;
68310;SDS011;55157;51.036;17.058;2022-09-12T01:21:24;9.02;;;5.15;;
68310;SDS011;55157;51.036;17.058;2022-09-12T01:24:04;10.63;;;4.60;;
68310;SDS011;55157;51.036;17.058;2022-09-12T01:29:30;13.05;;;4.85;;
68310;SDS011;55157;51.036;17.058;2022-09-12T01:32:01;6.85;;;4.75;;
68310;SDS011;55157;51.036;17.058;2022-09-12T01:34:30;7.22;;;4.47;;
68310;SDS011;55157;51.036;17.058;2022-09-12T01:37:00;6.82;;;4.63;;
68310;SDS011;55157;51.036;17.058;2022-09-12T01:39:28;8.85;;;4.55;;
68310;SDS011;55157;51.036;17.058;2022-09-12T01:41:56;6.45;;;4.18;;
68310;SDS011;55157;51.036;17.058;2022-09-12T01:44:30;8.40;;;4.10;;
68310;SDS011;55157;51.036;17.058;2022-09-12T01:47:04;10.60;;;4.88;;
68310;SDS011;55157;51.036;17.058;2022-09-12T01:49:31;6.13;;;4.47;;
68310;SDS011;55157;51.036;17.058;2022-09-12T01:51:57;8.38;;;4.93;;
68310;SDS011;55157;51.036;17.058;2022-09-12T01:54:25;6.43;;;4.03;;
68310;SDS011;55157;51.036;17.058;2022-09-12T01:56:54;9.40;;;4.97;;
68310;SDS011;55157;51.036;17.058;2022-09-12T01:59:22;6.30;;;4.03;;
68310;SDS011;55157;51.036;17.058;2022-09-12T02:01:48;8.07;;;3.92;;
68310;SDS011;55157;51.036;17.058;2022-09-12T02:04:19;10.68;;;4.88;;
68310;SDS011;55157;51.036;17.058;2022-09-12T02:06:45;8.38;;;4.20;;
68310;SDS011;55157;51.036;17.058;2022-09-12T02:09:15;8.00;;;5.15;;
68310;SDS011;55157;51.036;17.058;2022-09-12T02:11:42;6.53;;;4.13;;
68310;SDS011;55157;51.036;17.058;2022-09-12T02:14:08;9.73;;;4.05;;
68310;SDS011;55157;51.036;17.058;2022-09-12T02:16:36;5.32;;;4.10;;
68310;SDS011;55157;51.036;17.058;2022-09-12T02:19:06;8.27;;;4.20;;
68310;SDS011;55157;51.036;17.058;2022-09-12T02:21:34;6.43;;;4.10;;
68310;SDS011;55157;51.036;17.058;2022-09-12T02:24:02;9.38;;;4.63;;
68310;SDS011;55157;51.036;17.058;2022-09-12T02:26:30;5.85;;;4.28;;
68310;SDS011;55157;51.036;17.058;2022-09-12T02:28:57;10.43;;;5.10;;
68310;SDS011;55157;51.036;17.058;2022-09-12T02:31:23;5.18;;;3.70;;
68310;SDS011;55157;51.036;17.058;2022-09-12T02:33:54;8.30;;;4.78;;
68310;SDS011;55157;51.036;17.058;2022-09-12T02:36:27;7.05;;;4.00;;
68310;SDS011;55157;51.036;17.058;2022-09-12T02:38:55;10.20;;;5.10;;
68310;SDS011;55157;51.036;17.058;2022-09-12T02:41:21;7.43;;;4.05;;
68310;SDS011;55157;51.036;17.058;2022-09-12T02:43:46;5.60;;;4.03;;
68310;SDS011;55157;51.036;17.058;2022-09-12T02:46:14;12.30;;;5.03;;
68310;SDS011;55157;51.036;17.058;2022-09-12T02:48:41;6.22;;;3.80;;
68310;SDS011;55157;51.036;17.058;2022-09-12T02:51:07;6.82;;;3.58;;
68310;SDS011;55157;51.036;17.058;2022-09-12T02:53:32;9.27;;;4.43;;
68310;SDS011;55157;51.036;17.058;2022-09-12T02:55:59;6.63;;;3.83;;
68310;SDS011;55157;51.036;17.058;2022-09-12T02:58:25;6.72;;;4.32;;
68310;SDS011;55157;51.036;17.058;2022-09-12T03:00:53;5.25;;;4.00;;
68310;SDS011;55157;51.036;17.058;2022-09-12T03:03:26;6.15;;;3.75;;
68310;SDS011;55157;51.036;17.058;2022-09-12T03:05:56;7.07;;;4.90;;
68310;SDS011;55157;51.036;17.058;2022-09-12T03:08:27;7.70;;;4.03;;
68310;SDS011;55157;51.036;17.058;2022-09-12T03:10:59;14.20;;;5.15;;
68310;SDS011;55157;51.036;17.058;2022-09-12T03:13:32;11.43;;;3.90;;
68310;SDS011;55157;51.036;17.058;2022-09-12T03:16:02;8.27;;;3.83;;
68310;SDS011;55157;51.036;17.058;2022-09-12T03:18:31;11.88;;;4.82;;
68310;SDS011;55157;51.036;17.058;2022-09-12T03:21:01;6.38;;;3.95;;
68310;SDS011;55157;51.036;17.058;2022-09-12T03:23:29;8.32;;;4.40;;
68310;SDS011;55157;51.036;17.058;2022-09-12T03:25:56;8.27;;;4.45;;
68310;SDS011;55157;51.036;17.058;2022-09-12T03:28:23;5.55;;;3.97;;
68310;SDS011;55157;51.036;17.058;2022-09-12T03:30:50;7.57;;;4.63;;
68310;SDS011;55157;51.036;17.058;2022-09-12T03:33:16;7.40;;;4.20;;
68310;SDS011;55157;51.036;17.058;2022-09-12T03:35:42;8.13;;;4.90;;
68310;SDS011;55157;51.036;17.058;2022-09-12T03:38:07;9.13;;;4.25;;
68310;SDS011;55157;51.036;17.058;2022-09-12T03:40:32;8.73;;;4.30;;
68310;SDS011;55157;51.036;17.058;2022-09-12T03:42:57;5.40;;;3.78;;
68310;SDS011;55157;51.036;17.058;2022-09-12T03:45:23;10.18;;;3.63;;
68310;SDS011;55157;51.036;17.058;2022-09-12T03:47:49;5.00;;;4.00;;
68310;SDS011;55157;51.036;17.058;2022-09-12T03:50:15;11.15;;;3.85;;
68310;SDS011;55157;51.036;17.058;2022-09-12T03:52:40;9.45;;;4.43;;
68310;SDS011;55157;51.036;17.058;2022-09-12T03:55:05;8.10;;;4.45;;
68310;SDS011;55157;51.036;17.058;2022-09-12T03:57:31;7.80;;;4.63;;
68310;SDS011;55157;51.036;17.058;2022-09-12T03:59:56;7.00;;;4.82;;
68310;SDS011;55157;51.036;17.058;2022-09-12T04:02:21;4.90;;;4.00;;
68310;SDS011;55157;51.036;17.058;2022-09-12T04:04:48;10.70;;;4.10;;
68310;SDS011;55157;51.036;17.058;2022-09-12T04:07:13;7.93;;;3.92;;
68310;SDS011;55157;51.036;17.058;2022-09-12T04:09:38;7.63;;;4.30;;
68310;SDS011;55157;51.036;17.058;2022-09-12T04:12:04;13.38;;;4.50;;
68310;SDS011;55157;51.036;17.058;2022-09-12T04:14:29;6.40;;;4.15;;
68310;SDS011;55157;51.036;17.058;2022-09-12T04:16:54;11.43;;;4.63;;
68310;SDS011;55157;51.036;17.058;2022-09-12T04:19:20;8.60;;;4.20;;
68310;SDS011;55157;51.036;17.058;2022-09-12T04:21:47;10.38;;;5.00;;
68310;SDS011;55157;51.036;17.058;2022-09-12T04:24:12;13.45;;;5.07;;
68310;SDS011;55157;51.036;17.058;2022-09-12T04:26:37;10.75;;;4.68;;
68310;SDS011;55157;51.036;17.058;2022-09-12T04:29:03;12.13;;;5.00;;
68310;SDS011;55157;51.036;17.058;2022-09-12T04:31:28;10.52;;;5.00;;
68310;SDS011;55157;51.036;17.058;2022-09-12T04:33:53;9.40;;;5.07;;
68310;SDS011;55157;51.036;17.058;2022-09-12T04:36:19;8.65;;;4.75;;
68310;SDS011;55157;51.036;17.058;2022-09-12T04:38:46;8.60;;;4.70;;
68310;SDS011;55157;51.036;17.058;2022-09-12T04:41:11;7.85;;;4.60;;
68310;SDS011;55157;51.036;17.058;2022-09-12T04:43:37;7.18;;;4.15;;
68310;SDS011;55157;51.036;17.058;2022-09-12T04:46:03;6.03;;;4.57;;
68310;SDS011;55157;51.036;17.058;2022-09-12T04:48:29;9.80;;;5.82;;
68310;SDS011;55157;51.036;17.058;2022-09-12T04:50:54;6.85;;;4.50;;
68310;SDS011;55157;51.036;17.058;2022-09-12T04:53:19;6.88;;;4.32;;
68310;SDS011;55157;51.036;17.058;2022-09-12T04:55:46;11.40;;;4.30;;
68310;SDS011;55157;51.036;17.058;2022-09-12T04:58:11;13.65;;;4.78;;
68310;SDS011;55157;51.036;17.058;2022-09-12T05:00:36;13.00;;;6.03;;
68310;SDS011;55157;51.036;17.058;2022-09-12T05:03:02;10.13;;;5.10;;
68310;SDS011;55157;51.036;17.058;2022-09-12T05:05:27;9.82;;;5.55;;
68310;SDS011;55157;51.036;17.058;2022-09-12T05:07:52;11.07;;;4.82;;
68310;SDS011;55157;51.036;17.058;2022-09-12T05:10:17;8.65;;;5.25;;
68310;SDS011;55157;51.036;17.058;2022-09-12T05:12:45;10.80;;;5.15;;
68310;SDS011;55157;51.036;17.058;2022-09-12T05:15:12;6.20;;;4.50;;
68310;SDS011;55157;51.036;17.058;2022-09-12T05:17:37;6.90;;;5.28;;
68310;SDS011;55157;51.036;17.058;2022-09-12T05:20:02;8.23;;;5.47;;
68310;SDS011;55157;51.036;17.058;2022-09-12T05:22:28;8.10;;;4.82;;
68310;SDS011;55157;51.036;17.058;2022-09-12T05:24:53;6.57;;;4.88;;
68310;SDS011;55157;51.036;17.058;2022-09-12T05:27:18;7.13;;;4.65;;
68310;SDS011;55157;51.036;17.058;2022-09-12T05:29:45;8.30;;;5.47;;
68310;SDS011;55157;51.036;17.058;2022-09-12T05:32:10;7.45;;;4.65;;
68310;SDS011;55157;51.036;17.058;2022-09-12T05:34:35;14.65;;;4.65;;
68310;SDS011;55157;51.036;17.058;2022-09-12T05:37:00;9.30;;;5.07;;
68310;SDS011;55157;51.036;17.058;2022-09-12T05:39:26;8.13;;;4.80;;
68310;SDS011;55157;51.036;17.058;2022-09-12T05:41:51;12.45;;;5.25;;
68310;SDS011;55157;51.036;17.058;2022-09-12T05:44:16;11.60;;;5.35;;
68310;SDS011;55157;51.036;17.058;2022-09-12T05:46:43;10.05;;;5.82;;
68310;SDS011;55157;51.036;17.058;2022-09-12T05:49:09;8.13;;;5.32;;
68310;SDS011;55157;51.036;17.058;2022-09-12T05:51:35;9.25;;;6.25;;
68310;SDS011;55157;51.036;17.058;2022-09-12T05:54:01;12.35;;;5.85;;
68310;SDS011;55157;51.036;17.058;2022-09-12T05:56:27;13.57;;;6.00;;
68310;SDS011;55157;51.036;17.058;2022-09-12T05:58:54;7.18;;;5.20;;
68310;SDS011;55157;51.036;17.058;2022-09-12T06:01:19;14.52;;;6.88;;
68310;SDS011;55157;51.036;17.058;2022-09-12T06:03:47;14.07;;;5.95;;
68310;SDS011;55157;51.036;17.058;2022-09-12T06:06:13;8.25;;;5.28;;
68310;SDS011;55157;51.036;17.058;2022-09-12T06:08:39;7.97;;;5.50;;
68310;SDS011;55157;51.036;17.058;2022-09-12T06:11:04;7.47;;;5.47;;
68310;SDS011;55157;51.036;17.058;2022-09-12T06:13:30;12.48;;;5.50;;
68310;SDS011;55157;51.036;17.058;2022-09-12T06:16:00;13.82;;;4.80;;
68310;SDS011;55157;51.036;17.058;2022-09-12T06:18:26;10.75;;;5.85;;
68310;SDS011;55157;51.036;17.058;2022-09-12T06:20:52;8.23;;;4.93;;
68310;SDS011;55157;51.036;17.058;2022-09-12T06:23:18;10.95;;;5.03;;
68310;SDS011;55157;51.036;17.058;2022-09-12T06:25:46;10.88;;;5.03;;
68310;SDS011;55157;51.036;17.058;2022-09-12T06:28:11;12.40;;;5.13;;
68310;SDS011;55157;51.036;17.058;2022-09-12T06:30:36;8.88;;;4.10;;
68310;SDS011;55157;51.036;17.058;2022-09-12T06:33:01;18.95;;;4.75;;
68310;SDS011;55157;51.036;17.058;2022-09-12T06:35:27;8.43;;;4.70;;
68310;SDS011;55157;51.036;17.058;2022-09-12T06:37:53;9.85;;;4.32;;
68310;SDS011;55157;51.036;17.058;2022-09-12T06:40:19;12.38;;;4.10;;
68310;SDS011;55157;51.036;17.058;2022-09-12T06:42:44;7.93;;;4.18;;
68310;SDS011;55157;51.036;17.058;2022-09-12T06:45:09;5.82;;;3.70;;
68310;SDS011;55157;51.036;17.058;2022-09-12T06:47:34;6.95;;;4.20;;
68310;SDS011;55157;51.036;17.058;2022-09-12T06:50:00;8.07;;;3.88;;
68310;SDS011;55157;51.036;17.058;2022-09-12T06:52:25;9.75;;;3.33;;
68310;SDS011;55157;51.036;17.058;2022-09-12T06:54:51;10.38;;;3.58;;
68310;SDS011;55157;51.036;17.058;2022-09-12T06:57:17;6.90;;;3.85;;
68310;SDS011;55157;51.036;17.058;2022-09-12T06:59:42;6.25;;;3.35;;
68310;SDS011;55157;51.036;17.058;2022-09-12T07:02:07;11.63;;;3.60;;
68310;SDS011;55157;51.036;17.058;2022-09-12T07:04:33;10.10;;;3.00;;
68310;SDS011;55157;51.036;17.058;2022-09-12T07:06:58;8.80;;;2.83;;
68310;SDS011;55157;51.036;17.058;2022-09-12T07:09:23;7.20;;;2.90;;
68310;SDS011;55157;51.036;17.058;2022-09-12T07:11:50;10.68;;;2.80;;
68310;SDS011;55157;51.036;17.058;2022-09-12T07:14:15;10.57;;;3.30;;
68310;SDS011;55157;51.036;17.058;2022-09-12T07:16:40;5.20;;;2.90;;
68310;SDS011;55157;51.036;17.058;2022-09-12T07:19:06;7.32;;;2.67;;
68310;SDS011;55157;51.036;17.058;2022-09-12T07:21:31;8.57;;;2.60;;
68310;SDS011;55157;51.036;17.058;2022-09-12T07:23:57;12.20;;;2.90;;
68310;SDS011;55157;51.036;17.058;2022-09-12T07:26:23;9.65;;;3.05;;
68310;SDS011;55157;51.036;17.058;2022-09-12T07:28:50;10.95;;;3.00;;
68310;SDS011;55157;51.036;17.058;2022-09-12T07:31:16;8.85;;;2.67;;
68310;SDS011;55157;51.036;17.058;2022-09-12T07:33:42;3.88;;;2.00;;
68310;SDS011;55157;51.036;17.058;2022-09-12T07:36:09;11.82;;;2.50;;
68310;SDS011;55157;51.036;17.058;2022-09-12T07:38:34;11.95;;;3.88;;
68310;SDS011;55157;51.036;17.058;2022-09-12T07:41:00;6.43;;;2.50;;
68310;SDS011;55157;51.036;17.058;2022-09-12T07:43:25;6.57;;;2.78;;
68310;SDS011;55157;51.036;17.058;2022-09-12T07:45:55;6.75;;;2.55;;
68310;SDS011;55157;51.036;17.058;2022-09-12T07:48:20;7.65;;;2.38;;
68310;SDS011;55157;51.036;17.058;2022-09-12T07:50:45;8.77;;;2.35;;
68310;SDS011;55157;51.036;17.058;2022-09-12T07:53:10;4.15;;;1.90;;
68310;SDS011;55157;51.036;17.058;2022-09-12T07:55:36;6.72;;;2.58;;
68310;SDS011;55157;51.036;17.058;2022-09-12T07:58:01;7.13;;;2.33;;
68310;SDS011;55157;51.036;17.058;2022-09-12T08:00:26;5.47;;;2.33;;
68310;SDS011;55157;51.036;17.058;2022-09-12T08:02:53;3.50;;;1.98;;
68310;SDS011;55157;51.036;17.058;2022-09-12T08:05:18;6.63;;;2.60;;
68310;SDS011;55157;51.036;17.058;2022-09-12T08:07:44;14.60;;;2.42;;
68310;SDS011;55157;51.036;17.058;2022-09-12T08:10:09;8.25;;;2.17;;
68310;SDS011;55157;51.036;17.058;2022-09-12T08:12:34;4.32;;;2.40;;
68310;SDS011;55157;51.036;17.058;2022-09-12T08:14:59;7.25;;;2.75;;
68310;SDS011;55157;51.036;17.058;2022-09-12T08:17:25;11.48;;;2.25;;
68310;SDS011;55157;51.036;17.058;2022-09-12T08:19:51;9.70;;;2.50;;
68310;SDS011;55157;51.036;17.058;2022-09-12T08:22:17;12.18;;;2.42;;
68310;SDS011;55157;51.036;17.058;2022-09-12T08:24:42;4.38;;;2.05;;
68310;SDS011;55157;51.036;17.058;2022-09-12T08:27:07;3.65;;;2.42;;
68310;SDS011;55157;51.036;17.058;2022-09-12T08:29:32;7.05;;;2.65;;
68310;SDS011;55157;51.036;17.058;2022-09-12T08:31:58;5.55;;;2.53;;
68310;SDS011;55157;51.036;17.058;2022-09-12T08:34:23;4.25;;;1.92;;
68310;SDS011;55157;51.036;17.058;2022-09-12T08:36:50;6.53;;;2.20;;
68310;SDS011;55157;51.036;17.058;2022-09-12T08:39:15;5.95;;;2.00;;
68310;SDS011;55157;51.036;17.058;2022-09-12T08:41:41;5.60;;;2.28;;
68310;SDS011;55157;51.036;17.058;2022-09-12T08:44:15;4.05;;;2.28;;
68310;SDS011;55157;51.036;17.058;2022-09-12T08:46:45;4.55;;;2.10;;
68310;SDS011;55157;51.036;17.058;2022-09-12T08:49:14;8.25;;;2.40;;
68310;SDS011;55157;51.036;17.058;2022-09-12T08:51:45;5.75;;;2.05;;
68310;SDS011;55157;51.036;17.058;2022-09-12T08:54:16;8.30;;;2.33;;
68310;SDS011;55157;51.036;17.058;2022-09-12T08:56:42;4.35;;;2.10;;
68310;SDS011;55157;51.036;17.058;2022-09-12T08:59:08;13.23;;;2.17;;
68310;SDS011;55157;51.036;17.058;2022-09-12T09:01:36;3.55;;;1.85;;
68310;SDS011;55157;51.036;17.058;2022-09-12T09:04:07;6.72;;;1.75;;
68310;SDS011;55157;51.036;17.058;2022-09-12T09:06:38;5.18;;;2.10;;
68310;SDS011;55157;51.036;17.058;2022-09-12T09:09:06;10.93;;;2.15;;
68310;SDS011;55157;51.036;17.058;2022-09-12T09:11:42;7.05;;;2.25;;
68310;SDS011;55157;51.036;17.058;2022-09-12T09:14:13;9.15;;;2.58;;
68310;SDS011;55157;51.036;17.058;2022-09-12T09:16:43;4.32;;;2.38;;
68310;SDS011;55157;51.036;17.058;2022-09-12T09:19:09;4.28;;;2.03;;
68310;SDS011;55157;51.036;17.058;2022-09-12T09:21:37;7.75;;;2.25;;
68310;SDS011;55157;51.036;17.058;2022-09-12T09:24:05;4.00;;;1.88;;
68310;SDS011;55157;51.036;17.058;2022-09-12T09:26:36;8.80;;;2.05;;
68310;SDS011;55157;51.036;17.058;2022-09-12T09:29:05;8.18;;;2.35;;
68310;SDS011;55157;51.036;17.058;2022-09-12T09:31:36;11.20;;;3.55;;
68310;SDS011;55157;51.036;17.058;2022-09-12T09:34:04;9.50;;;2.17;;
68310;SDS011;55157;51.036;17.058;2022-09-12T09:36:31;9.45;;;2.45;;
68310;SDS011;55157;51.036;17.058;2022-09-12T09:39:01;6.28;;;2.47;;
68310;SDS011;55157;51.036;17.058;2022-09-12T09:41:31;4.68;;;2.20;;
68310;SDS011;55157;51.036;17.058;2022-09-12T09:43:58;4.00;;;2.30;;
68310;SDS011;55157;51.036;17.058;2022-09-12T09:46:25;5.63;;;2.10;;
68310;SDS011;55157;51.036;17.058;2022-09-12T09:48:51;7.07;;;2.90;;
68310;SDS011;55157;51.036;17.058;2022-09-12T09:51:18;11.27;;;2.70;;
68310;SDS011;55157;51.036;17.058;2022-09-12T09:53:46;6.55;;;2.25;;
68310;SDS011;55157;51.036;17.058;2022-09-12T09:56:13;5.20;;;2.72;;
68310;SDS011;55157;51.036;17.058;2022-09-12T09:58:39;3.30;;;2.15;;
68310;SDS011;55157;51.036;17.058;2022-09-12T10:01:05;14.07;;;3.05;;
68310;SDS011;55157;51.036;17.058;2022-09-12T10:03:33;6.85;;;2.60;;
68310;SDS011;55157;51.036;17.058;2022-09-12T10:06:01;4.15;;;2.40;;
68310;SDS011;55157;51.036;17.058;2022-09-12T10:08:30;4.57;;;2.90;;
68310;SDS011;55157;51.036;17.058;2022-09-12T10:10:57;4.45;;;2.63;;
68310;SDS011;55157;51.036;17.058;2022-09-12T10:13:24;9.68;;;2.30;;
68310;SDS011;55157;51.036;17.058;2022-09-12T10:15:56;5.97;;;2.15;;
68310;SDS011;55157;51.036;17.058;2022-09-12T10:18:33;6.83;;;2.83;;
68310;SDS011;55157;51.036;17.058;2022-09-12T10:20:58;4.25;;;1.95;;
68310;SDS011;55157;51.036;17.058;2022-09-12T10:23:27;6.22;;;2.75;;
68310;SDS011;55157;51.036;17.058;2022-09-12T10:25:54;4.28;;;2.45;;
68310;SDS011;55157;51.036;17.058;2022-09-12T10:28:21;8.07;;;2.25;;
68310;SDS011;55157;51.036;17.058;2022-09-12T10:30:49;3.67;;;2.38;;
68310;SDS011;55157;51.036;17.058;2022-09-12T10:33:15;5.15;;;2.42;;
68310;SDS011;55157;51.036;17.058;2022-09-12T10:35:43;2.92;;;2.13;;
68310;SDS011;55157;51.036;17.058;2022-09-12T10:38:11;2.97;;;1.92;;
68310;SDS011;55157;51.036;17.058;2022-09-12T10:40:38;3.78;;;2.53;;
68310;SDS011;55157;51.036;17.058;2022-09-12T10:43:14;5.82;;;2.45;;
68310;SDS011;55157;51.036;17.058;2022-09-12T10:45:40;5.20;;;2.40;;
68310;SDS011;55157;51.036;17.058;2022-09-12T10:48:21;6.68;;;2.13;;
68310;SDS011;55157;51.036;17.058;2022-09-12T10:50:49;3.73;;;2.37;;
68310;SDS011;55157;51.036;17.058;2022-09-12T10:53:17;4.60;;;2.10;;
68310;SDS011;55157;51.036;17.058;2022-09-12T10:55:55;4.15;;;2.10;;
68310;SDS011;55157;51.036;17.058;2022-09-12T11:01:13;2.38;;;1.80;;
68310;SDS011;55157;51.036;17.058;2022-09-12T11:03:46;4.50;;;2.42;;
68310;SDS011;55157;51.036;17.058;2022-09-12T11:08:42;9.82;;;2.38;;
68310;SDS011;55157;51.036;17.058;2022-09-12T11:11:14;13.80;;;2.15;;
68310;SDS011;55157;51.036;17.058;2022-09-12T11:13:49;3.83;;;1.75;;
68310;SDS011;55157;51.036;17.058;2022-09-12T11:16:19;6.75;;;2.45;;
68310;SDS011;55157;51.036;17.058;2022-09-12T11:18:54;6.38;;;1.95;;
68310;SDS011;55157;51.036;17.058;2022-09-12T11:21:29;4.47;;;1.48;;
68310;SDS011;55157;51.036;17.058;2022-09-12T11:26:46;3.53;;;1.98;;
68310;SDS011;55157;51.036;17.058;2022-09-12T11:29:16;3.70;;;1.63;;
68310;SDS011;55157;51.036;17.058;2022-09-12T11:31:54;7.07;;;1.97;;
68310;SDS011;55157;51.036;17.058;2022-09-12T11:34:27;7.22;;;1.83;;
68310;SDS011;55157;51.036;17.058;2022-09-12T11:36:57;5.47;;;2.15;;
68310;SDS011;55157;51.036;17.058;2022-09-12T11:39:27;6.75;;;1.98;;
68310;SDS011;55157;51.036;17.058;2022-09-12T11:41:57;5.25;;;1.83;;
68310;SDS011;55157;51.036;17.058;2022-09-12T11:44:25;4.50;;;2.00;;
68310;SDS011;55157;51.036;17.058;2022-09-12T11:46:52;5.03;;;1.92;;
68310;SDS011;55157;51.036;17.058;2022-09-12T11:49:22;4.60;;;2.27;;
68310;SDS011;55157;51.036;17.058;2022-09-12T11:51:51;8.43;;;2.10;;
68310;SDS011;55157;51.036;17.058;2022-09-12T11:54:19;3.03;;;1.80;;
68310;SDS011;55157;51.036;17.058;2022-09-12T11:56:45;2.67;;;1.58;;
68310;SDS011;55157;51.036;17.058;2022-09-12T11:59:14;8.10;;;1.90;;
68310;SDS011;55157;51.036;17.058;2022-09-12T12:01:42;2.15;;;1.50;;
68310;SDS011;55157;51.036;17.058;2022-09-12T12:04:10;4.07;;;1.58;;
68310;SDS011;55157;51.036;17.058;2022-09-12T12:06:38;5.32;;;1.83;;
68310;SDS011;55157;51.036;17.058;2022-09-12T12:09:04;4.95;;;1.40;;
68310;SDS011;55157;51.036;17.058;2022-09-12T12:11:30;6.80;;;2.35;;
68310;SDS011;55157;51.036;17.058;2022-09-12T12:13:56;5.03;;;2.25;;
68310;SDS011;55157;51.036;17.058;2022-09-12T12:16:25;7.07;;;2.20;;
68310;SDS011;55157;51.036;17.058;2022-09-12T12:18:54;9.02;;;2.63;;
68310;SDS011;55157;51.036;17.058;2022-09-12T12:21:28;6.63;;;2.60;;
68310;SDS011;55157;51.036;17.058;2022-09-12T12:26:44;7.65;;;2.65;;
68310;SDS011;55157;51.036;17.058;2022-09-12T12:29:34;5.68;;;2.28;;
68310;SDS011;55157;51.036;17.058;2022-09-12T12:34:41;8.13;;;3.17;;
68310;SDS011;55157;51.036;17.058;2022-09-12T12:39:55;9.52;;;2.42;;
68310;SDS011;55157;51.036;17.058;2022-09-12T12:45:02;10.98;;;2.53;;
68310;SDS011;55157;51.036;17.058;2022-09-12T12:47:29;12.23;;;2.60;;
68310;SDS011;55157;51.036;17.058;2022-09-12T12:49:58;5.78;;;1.77;;
68310;SDS011;55157;51.036;17.058;2022-09-12T12:52:24;2.83;;;1.80;;
68310;SDS011;55157;51.036;17.058;2022-09-12T12:54:53;5.85;;;1.73;;
68310;SDS011;55157;51.036;17.058;2022-09-12T12:57:26;5.00;;;2.30;;
68310;SDS011;55157;51.036;17.058;2022-09-12T12:59:52;3.67;;;1.80;;
68310;SDS011;55157;51.036;17.058;2022-09-12T13:02:19;3.70;;;2.17;;
68310;SDS011;55157;51.036;17.058;2022-09-12T13:04:46;5.15;;;2.17;;
68310;SDS011;55157;51.036;17.058;2022-09-12T13:07:19;4.50;;;2.03;;
68310;SDS011;55157;51.036;17.058;2022-09-12T13:09:46;14.20;;;2.10;;
68310;SDS011;55157;51.036;17.058;2022-09-12T13:12:17;4.30;;;1.92;;
68310;SDS011;55157;51.036;17.058;2022-09-12T13:14:48;3.45;;;1.85;;
68310;SDS011;55157;51.036;17.058;2022-09-12T13:17:14;7.38;;;2.30;;
68310;SDS011;55157;51.036;17.058;2022-09-12T13:19:42;4.35;;;2.42;;
68310;SDS011;55157;51.036;17.058;2022-09-12T13:22:08;6.40;;;2.25;;
68310;SDS011;55157;51.036;17.058;2022-09-12T13:24:35;4.38;;;1.90;;
68310;SDS011;55157;51.036;17.058;2022-09-12T13:27:12;11.10;;;2.70;;
68310;SDS011;55157;51.036;17.058;2022-09-12T13:29:39;6.43;;;1.98;;
68310;SDS011;55157;51.036;17.058;2022-09-12T13:32:04;2.70;;;1.80;;
68310;SDS011;55157;51.036;17.058;2022-09-12T13:34:30;4.15;;;1.70;;
68310;SDS011;55157;51.036;17.058;2022-09-12T13:37:09;6.47;;;1.88;;
68310;SDS011;55157;51.036;17.058;2022-09-12T13:39:38;3.17;;;1.80;;
68310;SDS011;55157;51.036;17.058;2022-09-12T13:42:31;8.95;;;1.92;;
68310;SDS011;55157;51.036;17.058;2022-09-12T13:45:01;9.73;;;2.67;;
68310;SDS011;55157;51.036;17.058;2022-09-12T13:47:28;5.80;;;2.78;;
68310;SDS011;55157;51.036;17.058;2022-09-12T13:49:55;7.15;;;1.55;;
68310;SDS011;55157;51.036;17.058;2022-09-12T13:52:22;3.97;;;1.63;;
68310;SDS011;55157;51.036;17.058;2022-09-12T13:54:51;4.85;;;1.50;;
68310;SDS011;55157;51.036;17.058;2022-09-12T13:57:26;3.92;;;1.73;;
68310;SDS011;55157;51.036;17.058;2022-09-12T13:59:53;3.20;;;1.70;;
68310;SDS011;55157;51.036;17.058;2022-09-12T14:02:19;4.45;;;1.75;;
68310;SDS011;55157;51.036;17.058;2022-09-12T14:04:45;8.75;;;2.05;;
68310;SDS011;55157;51.036;17.058;2022-09-12T14:07:12;3.25;;;1.73;;
68310;SDS011;55157;51.036;17.058;2022-09-12T14:09:40;4.90;;;1.60;;
68310;SDS011;55157;51.036;17.058;2022-09-12T14:14:37;4.85;;;1.98;;
68310;SDS011;55157;51.036;17.058;2022-09-12T14:17:13;4.78;;;2.35;;
68310;SDS011;55157;51.036;17.058;2022-09-12T14:19:38;2.60;;;1.63;;
68310;SDS011;55157;51.036;17.058;2022-09-12T14:22:06;5.88;;;1.73;;
68310;SDS011;55157;51.036;17.058;2022-09-12T14:24:33;5.95;;;1.77;;
68310;SDS011;55157;51.036;17.058;2022-09-12T14:26:59;6.15;;;1.77;;
68310;SDS011;55157;51.036;17.058;2022-09-12T14:29:24;3.78;;;1.48;;
68310;SDS011;55157;51.036;17.058;2022-09-12T14:32:00;3.83;;;2.40;;
68310;SDS011;55157;51.036;17.058;2022-09-12T14:34:26;4.20;;;2.00;;
68310;SDS011;55157;51.036;17.058;2022-09-12T14:36:51;2.17;;;1.48;;
68310;SDS011;55157;51.036;17.058;2022-09-12T14:39:19;8.23;;;2.15;;
68310;SDS011;55157;51.036;17.058;2022-09-12T14:41:44;4.60;;;2.17;;
68310;SDS011;55157;51.036;17.058;2022-09-12T14:44:14;4.72;;;1.90;;
68310;SDS011;55157;51.036;17.058;2022-09-12T14:46:41;5.03;;;2.15;;
68310;SDS011;55157;51.036;17.058;2022-09-12T14:49:08;5.75;;;1.95;;
68310;SDS011;55157;51.036;17.058;2022-09-12T14:51:36;4.35;;;1.75;;
68310;SDS011;55157;51.036;17.058;2022-09-12T14:54:02;4.20;;;2.05;;
68310;SDS011;55157;51.036;17.058;2022-09-12T14:56:37;7.38;;;2.10;;
68310;SDS011;55157;51.036;17.058;2022-09-12T15:01:47;10.20;;;2.08;;